sensor_id;sensor_type;location;lat;lon;timestamp;P1;durP1;ratioP1;P2;durP2;ratioP2
73678;SDS011;61978;52.742;16.962;2023-03-08T00:00:04;12.10;;;9.30;;
73678;SDS011;61978;52.742;16.962;2023-03-08T00:05:02;15.40;;;9.60;;
73678;SDS011;61978;52.742;16.962;2023-03-08T00:07:28;15.20;;;8.80;;
73678;SDS011;61978;52.742;16.962;2023-03-08T00:09:55;12.40;;;8.40;;
73678;SDS011;61978;52.742;16.962;2023-03-08T00:12:21;20.80;;;10.30;;
73678;SDS011;61978;52.742;16.962;2023-03-08T00:14:47;16.20;;;9.80;;
73678;SDS011;61978;52.742;16.962;2023-03-08T00:17:14;15.00;;;8.70;;
73678;SDS011;61978;52.742;16.962;2023-03-08T00:19:41;12.50;;;9.60;;
73678;SDS011;61978;52.742;16.962;2023-03-08T00:22:07;14.80;;;9.90;;
73678;SDS011;61978;52.742;16.962;2023-03-08T00:24:33;13.30;;;9.60;;
73678;SDS011;61978;52.742;16.962;2023-03-08T00:26:59;11.30;;;8.80;;
73678;SDS011;61978;52.742;16.962;2023-03-08T00:29:25;13.00;;;9.30;;
73678;SDS011;61978;52.742;16.962;2023-03-08T00:31:54;12.60;;;9.30;;
73678;SDS011;61978;52.742;16.962;2023-03-08T00:34:20;13.90;;;8.20;;
73678;SDS011;61978;52.742;16.962;2023-03-08T00:36:47;13.10;;;8.80;;
73678;SDS011;61978;52.742;16.962;2023-03-08T00:39:16;18.10;;;8.80;;
73678;SDS011;61978;52.742;16.962;2023-03-08T00:41:42;12.60;;;8.20;;
73678;SDS011;61978;52.742;16.962;2023-03-08T00:44:08;17.50;;;8.70;;
73678;SDS011;61978;52.742;16.962;2023-03-08T00:46:34;12.80;;;8.50;;
73678;SDS011;61978;52.742;16.962;2023-03-08T00:49:00;11.30;;;8.10;;
73678;SDS011;61978;52.742;16.962;2023-03-08T00:51:26;13.40;;;9.10;;
73678;SDS011;61978;52.742;16.962;2023-03-08T00:53:52;12.50;;;9.00;;
73678;SDS011;61978;52.742;16.962;2023-03-08T00:56:18;13.80;;;8.70;;
73678;SDS011;61978;52.742;16.962;2023-03-08T00:58:44;13.80;;;9.20;;
73678;SDS011;61978;52.742;16.962;2023-03-08T01:01:12;14.90;;;8.70;;
73678;SDS011;61978;52.742;16.962;2023-03-08T01:03:38;14.90;;;9.00;;
73678;SDS011;61978;52.742;16.962;2023-03-08T01:06:06;14.60;;;9.20;;
73678;SDS011;61978;52.742;16.962;2023-03-08T01:08:33;14.50;;;8.60;;
73678;SDS011;61978;52.742;16.962;2023-03-08T01:11:00;13.60;;;9.50;;
73678;SDS011;61978;52.742;16.962;2023-03-08T01:13:30;15.60;;;8.70;;
73678;SDS011;61978;52.742;16.962;2023-03-08T01:15:57;17.80;;;8.50;;
73678;SDS011;61978;52.742;16.962;2023-03-08T01:18:23;12.10;;;8.60;;
73678;SDS011;61978;52.742;16.962;2023-03-08T01:20:57;16.90;;;9.20;;
73678;SDS011;61978;52.742;16.962;2023-03-08T01:25:56;12.10;;;8.50;;
73678;SDS011;61978;52.742;16.962;2023-03-08T01:28:24;15.70;;;9.70;;
73678;SDS011;61978;52.742;16.962;2023-03-08T01:30:50;16.20;;;10.10;;
73678;SDS011;61978;52.742;16.962;2023-03-08T01:33:16;13.20;;;7.90;;
73678;SDS011;61978;52.742;16.962;2023-03-08T01:35:42;20.00;;;10.00;;
73678;SDS011;61978;52.742;16.962;2023-03-08T01:38:08;16.90;;;10.40;;
73678;SDS011;61978;52.742;16.962;2023-03-08T01:40:33;13.40;;;9.70;;
73678;SDS011;61978;52.742;16.962;2023-03-08T01:43:09;11.90;;;9.20;;
73678;SDS011;61978;52.742;16.962;2023-03-08T01:48:20;16.10;;;9.20;;
73678;SDS011;61978;52.742;16.962;2023-03-08T01:50:57;17.70;;;9.50;;
73678;SDS011;61978;52.742;16.962;2023-03-08T01:53:24;14.40;;;9.10;;
73678;SDS011;61978;52.742;16.962;2023-03-08T01:55:50;15.10;;;9.20;;
73678;SDS011;61978;52.742;16.962;2023-03-08T01:58:16;14.60;;;9.60;;
73678;SDS011;61978;52.742;16.962;2023-03-08T02:00:43;12.10;;;7.70;;
73678;SDS011;61978;52.742;16.962;2023-03-08T02:03:09;13.70;;;9.60;;
73678;SDS011;61978;52.742;16.962;2023-03-08T02:05:36;13.60;;;9.80;;
73678;SDS011;61978;52.742;16.962;2023-03-08T02:08:11;17.40;;;8.10;;
73678;SDS011;61978;52.742;16.962;2023-03-08T02:10:37;12.70;;;8.50;;
73678;SDS011;61978;52.742;16.962;2023-03-08T02:13:04;14.50;;;8.10;;
73678;SDS011;61978;52.742;16.962;2023-03-08T02:15:32;17.50;;;9.50;;
73678;SDS011;61978;52.742;16.962;2023-03-08T02:17:59;17.10;;;8.80;;
73678;SDS011;61978;52.742;16.962;2023-03-08T02:20:30;17.30;;;10.00;;
73678;SDS011;61978;52.742;16.962;2023-03-08T02:23:07;13.20;;;9.60;;
73678;SDS011;61978;52.742;16.962;2023-03-08T02:25:33;12.60;;;8.70;;
73678;SDS011;61978;52.742;16.962;2023-03-08T02:27:59;14.70;;;9.20;;
73678;SDS011;61978;52.742;16.962;2023-03-08T02:30:29;15.20;;;8.80;;
73678;SDS011;61978;52.742;16.962;2023-03-08T02:32:55;16.40;;;10.10;;
73678;SDS011;61978;52.742;16.962;2023-03-08T02:35:21;15.60;;;9.30;;
73678;SDS011;61978;52.742;16.962;2023-03-08T02:37:47;16.20;;;9.30;;
73678;SDS011;61978;52.742;16.962;2023-03-08T02:40:13;16.60;;;10.40;;
73678;SDS011;61978;52.742;16.962;2023-03-08T02:42:39;14.20;;;9.80;;
73678;SDS011;61978;52.742;16.962;2023-03-08T02:45:06;17.00;;;9.90;;
73678;SDS011;61978;52.742;16.962;2023-03-08T02:47:34;15.00;;;8.50;;
73678;SDS011;61978;52.742;16.962;2023-03-08T02:50:00;15.40;;;8.80;;
73678;SDS011;61978;52.742;16.962;2023-03-08T02:52:26;17.90;;;9.40;;
73678;SDS011;61978;52.742;16.962;2023-03-08T02:54:52;12.70;;;9.10;;
73678;SDS011;61978;52.742;16.962;2023-03-08T02:57:20;16.20;;;9.70;;
73678;SDS011;61978;52.742;16.962;2023-03-08T02:59:47;15.00;;;9.80;;
73678;SDS011;61978;52.742;16.962;2023-03-08T03:02:13;15.90;;;9.60;;
73678;SDS011;61978;52.742;16.962;2023-03-08T03:04:40;16.00;;;9.40;;
73678;SDS011;61978;52.742;16.962;2023-03-08T03:07:07;17.00;;;9.90;;
73678;SDS011;61978;52.742;16.962;2023-03-08T03:09:34;19.80;;;8.80;;
73678;SDS011;61978;52.742;16.962;2023-03-08T03:12:01;18.20;;;10.10;;
73678;SDS011;61978;52.742;16.962;2023-03-08T03:14:28;14.10;;;9.20;;
73678;SDS011;61978;52.742;16.962;2023-03-08T03:16:55;13.40;;;8.90;;
73678;SDS011;61978;52.742;16.962;2023-03-08T03:19:21;14.90;;;9.40;;
73678;SDS011;61978;52.742;16.962;2023-03-08T03:21:47;15.60;;;9.90;;
73678;SDS011;61978;52.742;16.962;2023-03-08T03:24:14;13.80;;;10.10;;
73678;SDS011;61978;52.742;16.962;2023-03-08T03:26:44;13.90;;;9.20;;
73678;SDS011;61978;52.742;16.962;2023-03-08T03:29:11;16.30;;;9.90;;
73678;SDS011;61978;52.742;16.962;2023-03-08T03:31:39;12.60;;;8.60;;
73678;SDS011;61978;52.742;16.962;2023-03-08T03:34:05;17.00;;;11.20;;
73678;SDS011;61978;52.742;16.962;2023-03-08T03:36:31;16.30;;;9.50;;
73678;SDS011;61978;52.742;16.962;2023-03-08T03:38:59;14.30;;;9.50;;
73678;SDS011;61978;52.742;16.962;2023-03-08T03:41:26;18.50;;;10.80;;
73678;SDS011;61978;52.742;16.962;2023-03-08T03:44:01;18.60;;;10.80;;
73678;SDS011;61978;52.742;16.962;2023-03-08T03:46:28;19.30;;;11.30;;
73678;SDS011;61978;52.742;16.962;2023-03-08T03:48:55;13.30;;;9.10;;
73678;SDS011;61978;52.742;16.962;2023-03-08T03:51:22;17.50;;;9.90;;
73678;SDS011;61978;52.742;16.962;2023-03-08T03:56:21;15.10;;;9.80;;
73678;SDS011;61978;52.742;16.962;2023-03-08T03:58:48;15.20;;;9.50;;
73678;SDS011;61978;52.742;16.962;2023-03-08T04:01:18;17.10;;;10.30;;
73678;SDS011;61978;52.742;16.962;2023-03-08T04:03:46;15.50;;;10.40;;
73678;SDS011;61978;52.742;16.962;2023-03-08T04:06:22;17.60;;;11.50;;
73678;SDS011;61978;52.742;16.962;2023-03-08T04:08:53;19.00;;;10.00;;
73678;SDS011;61978;52.742;16.962;2023-03-08T04:11:21;18.50;;;10.30;;
73678;SDS011;61978;52.742;16.962;2023-03-08T04:13:48;16.40;;;11.50;;
73678;SDS011;61978;52.742;16.962;2023-03-08T04:16:16;26.50;;;11.70;;
73678;SDS011;61978;52.742;16.962;2023-03-08T04:18:43;16.10;;;9.80;;
73678;SDS011;61978;52.742;16.962;2023-03-08T04:21:10;18.40;;;12.30;;
73678;SDS011;61978;52.742;16.962;2023-03-08T04:23:37;29.90;;;17.50;;
73678;SDS011;61978;52.742;16.962;2023-03-08T04:26:06;36.20;;;20.60;;
73678;SDS011;61978;52.742;16.962;2023-03-08T04:28:32;19.00;;;12.90;;
73678;SDS011;61978;52.742;16.962;2023-03-08T04:30:59;12.80;;;7.90;;
73678;SDS011;61978;52.742;16.962;2023-03-08T04:33:25;17.50;;;9.90;;
73678;SDS011;61978;52.742;16.962;2023-03-08T04:35:51;15.40;;;10.60;;
73678;SDS011;61978;52.742;16.962;2023-03-08T04:38:19;14.40;;;10.60;;
73678;SDS011;61978;52.742;16.962;2023-03-08T04:40:49;18.10;;;11.30;;
73678;SDS011;61978;52.742;16.962;2023-03-08T04:43:51;13.90;;;10.20;;
73678;SDS011;61978;52.742;16.962;2023-03-08T04:46:20;18.20;;;8.20;;
73678;SDS011;61978;52.742;16.962;2023-03-08T04:48:48;18.90;;;11.50;;
73678;SDS011;61978;52.742;16.962;2023-03-08T04:51:17;22.70;;;11.80;;
73678;SDS011;61978;52.742;16.962;2023-03-08T04:53:44;18.80;;;12.30;;
73678;SDS011;61978;52.742;16.962;2023-03-08T04:56:11;16.70;;;11.40;;
73678;SDS011;61978;52.742;16.962;2023-03-08T04:58:38;15.70;;;10.30;;
73678;SDS011;61978;52.742;16.962;2023-03-08T05:01:14;59.50;;;35.20;;
73678;SDS011;61978;52.742;16.962;2023-03-08T05:03:41;27.60;;;17.70;;
73678;SDS011;61978;52.742;16.962;2023-03-08T05:06:08;22.00;;;13.80;;
73678;SDS011;61978;52.742;16.962;2023-03-08T05:08:34;24.10;;;13.00;;
73678;SDS011;61978;52.742;16.962;2023-03-08T05:11:01;21.40;;;12.20;;
73678;SDS011;61978;52.742;16.962;2023-03-08T05:13:33;36.20;;;20.60;;
73678;SDS011;61978;52.742;16.962;2023-03-08T05:16:00;32.60;;;21.10;;
73678;SDS011;61978;52.742;16.962;2023-03-08T05:18:26;25.50;;;16.10;;
73678;SDS011;61978;52.742;16.962;2023-03-08T05:20:57;21.90;;;13.90;;
73678;SDS011;61978;52.742;16.962;2023-03-08T05:23:25;19.60;;;12.00;;
73678;SDS011;61978;52.742;16.962;2023-03-08T05:25:52;22.50;;;13.20;;
73678;SDS011;61978;52.742;16.962;2023-03-08T05:28:18;22.90;;;13.00;;
73678;SDS011;61978;52.742;16.962;2023-03-08T05:30:45;19.80;;;12.70;;
73678;SDS011;61978;52.742;16.962;2023-03-08T05:33:11;21.50;;;13.20;;
73678;SDS011;61978;52.742;16.962;2023-03-08T05:35:38;19.90;;;13.10;;
73678;SDS011;61978;52.742;16.962;2023-03-08T05:38:12;53.60;;;23.70;;
73678;SDS011;61978;52.742;16.962;2023-03-08T05:40:39;45.60;;;21.60;;
73678;SDS011;61978;52.742;16.962;2023-03-08T05:43:05;45.90;;;23.10;;
73678;SDS011;61978;52.742;16.962;2023-03-08T05:45:32;30.80;;;15.20;;
73678;SDS011;61978;52.742;16.962;2023-03-08T05:47:57;30.40;;;17.60;;
73678;SDS011;61978;52.742;16.962;2023-03-08T05:50:23;39.30;;;19.20;;
73678;SDS011;61978;52.742;16.962;2023-03-08T05:52:50;36.60;;;17.50;;
73678;SDS011;61978;52.742;16.962;2023-03-08T05:55:22;54.20;;;21.50;;
73678;SDS011;61978;52.742;16.962;2023-03-08T05:57:49;20.00;;;10.20;;
73678;SDS011;61978;52.742;16.962;2023-03-08T06:00:15;33.90;;;16.80;;
73678;SDS011;61978;52.742;16.962;2023-03-08T06:02:41;35.20;;;16.60;;
73678;SDS011;61978;52.742;16.962;2023-03-08T06:05:07;46.50;;;19.40;;
73678;SDS011;61978;52.742;16.962;2023-03-08T06:07:33;42.50;;;16.30;;
73678;SDS011;61978;52.742;16.962;2023-03-08T06:10:04;53.20;;;18.90;;
73678;SDS011;61978;52.742;16.962;2023-03-08T06:12:30;132.40;;;37.60;;
73678;SDS011;61978;52.742;16.962;2023-03-08T06:14:59;144.90;;;41.90;;
73678;SDS011;61978;52.742;16.962;2023-03-08T06:17:26;104.40;;;35.40;;
73678;SDS011;61978;52.742;16.962;2023-03-08T06:19:53;54.90;;;21.80;;
73678;SDS011;61978;52.742;16.962;2023-03-08T06:22:21;63.10;;;25.60;;
73678;SDS011;61978;52.742;16.962;2023-03-08T06:24:47;77.20;;;32.20;;
73678;SDS011;61978;52.742;16.962;2023-03-08T06:27:16;49.80;;;21.20;;
73678;SDS011;61978;52.742;16.962;2023-03-08T06:29:43;20.00;;;10.30;;
73678;SDS011;61978;52.742;16.962;2023-03-08T06:32:09;16.30;;;8.80;;
73678;SDS011;61978;52.742;16.962;2023-03-08T06:34:35;73.50;;;28.70;;
73678;SDS011;61978;52.742;16.962;2023-03-08T06:37:01;18.40;;;10.10;;
73678;SDS011;61978;52.742;16.962;2023-03-08T06:39:27;25.40;;;14.10;;
73678;SDS011;61978;52.742;16.962;2023-03-08T06:41:56;28.20;;;16.50;;
73678;SDS011;61978;52.742;16.962;2023-03-08T06:44:22;25.80;;;13.00;;
73678;SDS011;61978;52.742;16.962;2023-03-08T06:46:48;32.20;;;14.00;;
73678;SDS011;61978;52.742;16.962;2023-03-08T06:49:14;20.00;;;10.90;;
73678;SDS011;61978;52.742;16.962;2023-03-08T06:51:40;32.10;;;16.50;;
73678;SDS011;61978;52.742;16.962;2023-03-08T06:54:06;56.90;;;23.40;;
73678;SDS011;61978;52.742;16.962;2023-03-08T06:56:32;30.10;;;15.30;;
73678;SDS011;61978;52.742;16.962;2023-03-08T06:58:58;51.10;;;22.10;;
73678;SDS011;61978;52.742;16.962;2023-03-08T07:01:24;26.50;;;13.20;;
73678;SDS011;61978;52.742;16.962;2023-03-08T07:03:50;27.00;;;14.40;;
73678;SDS011;61978;52.742;16.962;2023-03-08T07:06:18;19.60;;;11.70;;
73678;SDS011;61978;52.742;16.962;2023-03-08T07:08:44;26.90;;;13.30;;
73678;SDS011;61978;52.742;16.962;2023-03-08T07:11:10;23.80;;;12.40;;
73678;SDS011;61978;52.742;16.962;2023-03-08T07:13:36;29.00;;;15.10;;
73678;SDS011;61978;52.742;16.962;2023-03-08T07:16:06;19.90;;;10.00;;
73678;SDS011;61978;52.742;16.962;2023-03-08T07:18:33;15.60;;;9.50;;
73678;SDS011;61978;52.742;16.962;2023-03-08T07:20:58;17.30;;;10.00;;
73678;SDS011;61978;52.742;16.962;2023-03-08T07:23:24;13.50;;;7.70;;
73678;SDS011;61978;52.742;16.962;2023-03-08T07:25:51;17.10;;;8.50;;
73678;SDS011;61978;52.742;16.962;2023-03-08T07:28:17;15.50;;;8.60;;
73678;SDS011;61978;52.742;16.962;2023-03-08T07:30:47;17.00;;;7.50;;
73678;SDS011;61978;52.742;16.962;2023-03-08T07:33:13;14.10;;;8.80;;
73678;SDS011;61978;52.742;16.962;2023-03-08T07:35:39;9.20;;;7.30;;
73678;SDS011;61978;52.742;16.962;2023-03-08T07:38:05;13.40;;;6.90;;
73678;SDS011;61978;52.742;16.962;2023-03-08T07:40:32;10.70;;;7.10;;
73678;SDS011;61978;52.742;16.962;2023-03-08T07:42:58;12.90;;;7.40;;
73678;SDS011;61978;52.742;16.962;2023-03-08T07:46:00;12.20;;;7.50;;
73678;SDS011;61978;52.742;16.962;2023-03-08T07:48:27;14.80;;;7.10;;
73678;SDS011;61978;52.742;16.962;2023-03-08T07:50:54;10.20;;;7.50;;
73678;SDS011;61978;52.742;16.962;2023-03-08T07:53:20;43.40;;;17.30;;
73678;SDS011;61978;52.742;16.962;2023-03-08T07:55:46;23.30;;;9.20;;
73678;SDS011;61978;52.742;16.962;2023-03-08T07:58:12;44.30;;;16.40;;
73678;SDS011;61978;52.742;16.962;2023-03-08T08:00:38;19.70;;;10.10;;
73678;SDS011;61978;52.742;16.962;2023-03-08T08:03:04;21.50;;;10.50;;
73678;SDS011;61978;52.742;16.962;2023-03-08T08:05:29;26.40;;;12.00;;
73678;SDS011;61978;52.742;16.962;2023-03-08T08:07:55;80.30;;;28.30;;
73678;SDS011;61978;52.742;16.962;2023-03-08T08:10:21;77.30;;;28.60;;
73678;SDS011;61978;52.742;16.962;2023-03-08T08:12:47;34.40;;;14.60;;
73678;SDS011;61978;52.742;16.962;2023-03-08T08:15:13;26.20;;;12.20;;
73678;SDS011;61978;52.742;16.962;2023-03-08T08:17:40;24.70;;;10.50;;
73678;SDS011;61978;52.742;16.962;2023-03-08T08:20:06;16.70;;;7.70;;
73678;SDS011;61978;52.742;16.962;2023-03-08T08:22:36;12.30;;;6.40;;
73678;SDS011;61978;52.742;16.962;2023-03-08T08:25:04;12.40;;;7.20;;
73678;SDS011;61978;52.742;16.962;2023-03-08T08:27:30;18.70;;;10.10;;
73678;SDS011;61978;52.742;16.962;2023-03-08T08:29:56;7.90;;;5.70;;
73678;SDS011;61978;52.742;16.962;2023-03-08T08:32:24;19.70;;;10.70;;
73678;SDS011;61978;52.742;16.962;2023-03-08T08:34:50;16.00;;;7.00;;
73678;SDS011;61978;52.742;16.962;2023-03-08T08:37:16;9.00;;;5.00;;
73678;SDS011;61978;52.742;16.962;2023-03-08T08:39:42;8.70;;;5.20;;
73678;SDS011;61978;52.742;16.962;2023-03-08T08:42:08;13.60;;;7.10;;
73678;SDS011;61978;52.742;16.962;2023-03-08T08:44:34;10.20;;;4.60;;
73678;SDS011;61978;52.742;16.962;2023-03-08T08:47:00;14.10;;;6.10;;
73678;SDS011;61978;52.742;16.962;2023-03-08T08:49:26;7.50;;;4.00;;
73678;SDS011;61978;52.742;16.962;2023-03-08T08:51:52;5.50;;;3.70;;
73678;SDS011;61978;52.742;16.962;2023-03-08T08:54:18;8.80;;;5.10;;
73678;SDS011;61978;52.742;16.962;2023-03-08T08:56:46;9.60;;;4.80;;
73678;SDS011;61978;52.742;16.962;2023-03-08T08:59:12;9.00;;;4.50;;
73678;SDS011;61978;52.742;16.962;2023-03-08T09:01:40;8.10;;;5.40;;
73678;SDS011;61978;52.742;16.962;2023-03-08T09:04:10;9.90;;;4.30;;
73678;SDS011;61978;52.742;16.962;2023-03-08T09:06:37;9.00;;;5.80;;
73678;SDS011;61978;52.742;16.962;2023-03-08T09:09:03;6.90;;;5.00;;
73678;SDS011;61978;52.742;16.962;2023-03-08T09:11:30;15.40;;;5.50;;
73678;SDS011;61978;52.742;16.962;2023-03-08T09:13:56;7.90;;;4.70;;
73678;SDS011;61978;52.742;16.962;2023-03-08T09:16:23;8.20;;;4.50;;
73678;SDS011;61978;52.742;16.962;2023-03-08T09:18:50;8.70;;;5.40;;
73678;SDS011;61978;52.742;16.962;2023-03-08T09:21:16;7.90;;;4.80;;
73678;SDS011;61978;52.742;16.962;2023-03-08T09:23:43;5.80;;;4.20;;
73678;SDS011;61978;52.742;16.962;2023-03-08T09:26:09;9.60;;;4.70;;
73678;SDS011;61978;52.742;16.962;2023-03-08T09:28:36;6.50;;;4.10;;
73678;SDS011;61978;52.742;16.962;2023-03-08T09:31:09;8.40;;;4.10;;
73678;SDS011;61978;52.742;16.962;2023-03-08T09:33:38;7.90;;;4.20;;
73678;SDS011;61978;52.742;16.962;2023-03-08T09:36:04;7.40;;;4.20;;
73678;SDS011;61978;52.742;16.962;2023-03-08T09:38:30;8.00;;;4.50;;
73678;SDS011;61978;52.742;16.962;2023-03-08T09:46:18;10.80;;;4.20;;
73678;SDS011;61978;52.742;16.962;2023-03-08T09:48:49;10.90;;;5.20;;
73678;SDS011;61978;52.742;16.962;2023-03-08T09:51:17;7.30;;;4.20;;
73678;SDS011;61978;52.742;16.962;2023-03-08T09:53:46;9.00;;;4.60;;
73678;SDS011;61978;52.742;16.962;2023-03-08T09:56:20;11.30;;;4.20;;
73678;SDS011;61978;52.742;16.962;2023-03-08T09:58:50;7.30;;;5.40;;
73678;SDS011;61978;52.742;16.962;2023-03-08T10:06:33;11.60;;;5.40;;
73678;SDS011;61978;52.742;16.962;2023-03-08T10:11:59;12.70;;;8.00;;
73678;SDS011;61978;52.742;16.962;2023-03-08T10:14:28;12.50;;;6.10;;
73678;SDS011;61978;52.742;16.962;2023-03-08T10:17:00;11.80;;;5.10;;
73678;SDS011;61978;52.742;16.962;2023-03-08T10:19:35;9.90;;;5.00;;
73678;SDS011;61978;52.742;16.962;2023-03-08T10:22:07;15.30;;;6.90;;
73678;SDS011;61978;52.742;16.962;2023-03-08T10:24:41;8.90;;;4.10;;
73678;SDS011;61978;52.742;16.962;2023-03-08T10:27:15;15.60;;;6.80;;
73678;SDS011;61978;52.742;16.962;2023-03-08T10:29:48;11.70;;;5.30;;
73678;SDS011;61978;52.742;16.962;2023-03-08T10:32:14;11.90;;;4.90;;
73678;SDS011;61978;52.742;16.962;2023-03-08T10:34:40;20.80;;;9.40;;
73678;SDS011;61978;52.742;16.962;2023-03-08T10:37:06;12.30;;;6.30;;
73678;SDS011;61978;52.742;16.962;2023-03-08T10:39:34;12.90;;;6.10;;
73678;SDS011;61978;52.742;16.962;2023-03-08T10:42:06;21.80;;;8.40;;
73678;SDS011;61978;52.742;16.962;2023-03-08T10:50:01;28.20;;;12.90;;
73678;SDS011;61978;52.742;16.962;2023-03-08T10:52:27;11.20;;;6.00;;
73678;SDS011;61978;52.742;16.962;2023-03-08T10:55:03;25.20;;;11.50;;
73678;SDS011;61978;52.742;16.962;2023-03-08T10:57:30;17.50;;;8.80;;
73678;SDS011;61978;52.742;16.962;2023-03-08T10:59:57;14.90;;;9.00;;
73678;SDS011;61978;52.742;16.962;2023-03-08T11:02:24;10.80;;;5.70;;
73678;SDS011;61978;52.742;16.962;2023-03-08T11:04:52;11.40;;;6.20;;
73678;SDS011;61978;52.742;16.962;2023-03-08T11:07:22;10.00;;;4.70;;
73678;SDS011;61978;52.742;16.962;2023-03-08T11:09:49;11.00;;;6.30;;
73678;SDS011;61978;52.742;16.962;2023-03-08T11:12:22;18.30;;;9.50;;
73678;SDS011;61978;52.742;16.962;2023-03-08T11:14:49;20.10;;;6.80;;
73678;SDS011;61978;52.742;16.962;2023-03-08T11:17:21;51.20;;;17.00;;
73678;SDS011;61978;52.742;16.962;2023-03-08T11:22:25;7.40;;;3.80;;
73678;SDS011;61978;52.742;16.962;2023-03-08T11:25:01;19.40;;;10.70;;
73678;SDS011;61978;52.742;16.962;2023-03-08T11:35:55;18.40;;;6.70;;
73678;SDS011;61978;52.742;16.962;2023-03-08T11:38:24;13.50;;;8.30;;
73678;SDS011;61978;52.742;16.962;2023-03-08T11:41:06;31.30;;;18.30;;
73678;SDS011;61978;52.742;16.962;2023-03-08T11:43:42;10.60;;;5.10;;
73678;SDS011;61978;52.742;16.962;2023-03-08T11:51:42;18.30;;;8.30;;
73678;SDS011;61978;52.742;16.962;2023-03-08T11:54:14;21.70;;;11.80;;
73678;SDS011;61978;52.742;16.962;2023-03-08T11:56:45;17.90;;;10.30;;
73678;SDS011;61978;52.742;16.962;2023-03-08T11:59:14;8.70;;;5.00;;
73678;SDS011;61978;52.742;16.962;2023-03-08T12:01:52;17.70;;;6.90;;
73678;SDS011;61978;52.742;16.962;2023-03-08T12:04:30;7.40;;;4.50;;
73678;SDS011;61978;52.742;16.962;2023-03-08T12:06:58;16.90;;;8.90;;
73678;SDS011;61978;52.742;16.962;2023-03-08T12:09:44;6.80;;;3.90;;
73678;SDS011;61978;52.742;16.962;2023-03-08T12:12:17;10.30;;;4.30;;
73678;SDS011;61978;52.742;16.962;2023-03-08T12:15:06;12.10;;;6.40;;
73678;SDS011;61978;52.742;16.962;2023-03-08T12:17:38;8.30;;;4.10;;
73678;SDS011;61978;52.742;16.962;2023-03-08T12:20:11;11.00;;;6.60;;
73678;SDS011;61978;52.742;16.962;2023-03-08T12:22:43;13.20;;;8.40;;
73678;SDS011;61978;52.742;16.962;2023-03-08T12:33:03;15.90;;;9.80;;
73678;SDS011;61978;52.742;16.962;2023-03-08T12:35:36;13.40;;;8.60;;
73678;SDS011;61978;52.742;16.962;2023-03-08T12:40:48;12.10;;;7.50;;
73678;SDS011;61978;52.742;16.962;2023-03-08T12:45:47;6.80;;;4.40;;
73678;SDS011;61978;52.742;16.962;2023-03-08T12:53:22;6.40;;;4.50;;
73678;SDS011;61978;52.742;16.962;2023-03-08T12:56:00;10.20;;;6.00;;
73678;SDS011;61978;52.742;16.962;2023-03-08T12:58:26;12.00;;;5.30;;
73678;SDS011;61978;52.742;16.962;2023-03-08T13:01:26;11.50;;;5.70;;
73678;SDS011;61978;52.742;16.962;2023-03-08T13:03:43;8.50;;;5.70;;
73678;SDS011;61978;52.742;16.962;2023-03-08T13:08:43;8.60;;;5.60;;
73678;SDS011;61978;52.742;16.962;2023-03-08T13:11:12;5.20;;;4.20;;
73678;SDS011;61978;52.742;16.962;2023-03-08T13:13:48;7.90;;;4.90;;
73678;SDS011;61978;52.742;16.962;2023-03-08T13:16:18;11.60;;;5.40;;
73678;SDS011;61978;52.742;16.962;2023-03-08T13:18:46;7.60;;;4.90;;
73678;SDS011;61978;52.742;16.962;2023-03-08T13:21:29;8.40;;;5.70;;
73678;SDS011;61978;52.742;16.962;2023-03-08T13:29:19;14.40;;;5.70;;
73678;SDS011;61978;52.742;16.962;2023-03-08T13:31:46;10.40;;;5.10;;
73678;SDS011;61978;52.742;16.962;2023-03-08T13:34:31;11.80;;;6.20;;
73678;SDS011;61978;52.742;16.962;2023-03-08T13:36:59;10.80;;;6.60;;
73678;SDS011;61978;52.742;16.962;2023-03-08T13:39:27;9.70;;;5.40;;
73678;SDS011;61978;52.742;16.962;2023-03-08T13:42:05;11.40;;;5.60;;
73678;SDS011;61978;52.742;16.962;2023-03-08T13:44:32;17.50;;;5.60;;
73678;SDS011;61978;52.742;16.962;2023-03-08T13:47:01;8.20;;;5.10;;
73678;SDS011;61978;52.742;16.962;2023-03-08T13:49:31;11.40;;;6.20;;
73678;SDS011;61978;52.742;16.962;2023-03-08T13:52:00;8.00;;;6.00;;
73678;SDS011;61978;52.742;16.962;2023-03-08T13:54:28;9.00;;;5.90;;
73678;SDS011;61978;52.742;16.962;2023-03-08T13:56:56;13.60;;;6.20;;
73678;SDS011;61978;52.742;16.962;2023-03-08T13:59:22;9.60;;;6.20;;
73678;SDS011;61978;52.742;16.962;2023-03-08T14:01:48;16.70;;;8.90;;
73678;SDS011;61978;52.742;16.962;2023-03-08T14:04:22;13.40;;;9.00;;
73678;SDS011;61978;52.742;16.962;2023-03-08T14:06:52;12.50;;;7.70;;
73678;SDS011;61978;52.742;16.962;2023-03-08T14:09:19;19.00;;;8.40;;
73678;SDS011;61978;52.742;16.962;2023-03-08T14:11:46;15.80;;;8.80;;
73678;SDS011;61978;52.742;16.962;2023-03-08T14:14:21;11.30;;;5.80;;
73678;SDS011;61978;52.742;16.962;2023-03-08T14:16:50;10.70;;;6.10;;
73678;SDS011;61978;52.742;16.962;2023-03-08T14:19:24;11.20;;;7.60;;
73678;SDS011;61978;52.742;16.962;2023-03-08T14:21:52;15.70;;;6.60;;
73678;SDS011;61978;52.742;16.962;2023-03-08T14:24:23;23.10;;;6.80;;
73678;SDS011;61978;52.742;16.962;2023-03-08T14:29:40;8.50;;;5.10;;
73678;SDS011;61978;52.742;16.962;2023-03-08T14:34:40;10.00;;;5.30;;
73678;SDS011;61978;52.742;16.962;2023-03-08T14:39:40;9.00;;;5.30;;
73678;SDS011;61978;52.742;16.962;2023-03-08T14:42:08;10.10;;;5.30;;
73678;SDS011;61978;52.742;16.962;2023-03-08T14:44:35;18.60;;;12.70;;
73678;SDS011;61978;52.742;16.962;2023-03-08T14:47:08;31.60;;;16.40;;
73678;SDS011;61978;52.742;16.962;2023-03-08T14:49:35;10.40;;;5.00;;
73678;SDS011;61978;52.742;16.962;2023-03-08T14:52:01;9.30;;;5.80;;
73678;SDS011;61978;52.742;16.962;2023-03-08T14:54:29;8.30;;;5.40;;
73678;SDS011;61978;52.742;16.962;2023-03-08T14:57:15;12.00;;;6.20;;
73678;SDS011;61978;52.742;16.962;2023-03-08T14:59:42;13.90;;;7.30;;
73678;SDS011;61978;52.742;16.962;2023-03-08T15:02:12;9.20;;;6.60;;
73678;SDS011;61978;52.742;16.962;2023-03-08T15:04:40;9.90;;;6.70;;
73678;SDS011;61978;52.742;16.962;2023-03-08T15:07:06;15.60;;;7.90;;
73678;SDS011;61978;52.742;16.962;2023-03-08T15:09:34;12.90;;;7.60;;
73678;SDS011;61978;52.742;16.962;2023-03-08T15:12:01;18.90;;;8.60;;
73678;SDS011;61978;52.742;16.962;2023-03-08T15:14:29;13.20;;;7.50;;
73678;SDS011;61978;52.742;16.962;2023-03-08T15:16:55;26.10;;;10.70;;
73678;SDS011;61978;52.742;16.962;2023-03-08T15:19:23;40.30;;;16.60;;
73678;SDS011;61978;52.742;16.962;2023-03-08T15:21:48;40.60;;;21.60;;
73678;SDS011;61978;52.742;16.962;2023-03-08T15:24:15;39.20;;;19.70;;
73678;SDS011;61978;52.742;16.962;2023-03-08T15:26:42;37.70;;;17.00;;
73678;SDS011;61978;52.742;16.962;2023-03-08T15:29:28;39.10;;;17.90;;
73678;SDS011;61978;52.742;16.962;2023-03-08T15:31:55;35.60;;;20.10;;
73678;SDS011;61978;52.742;16.962;2023-03-08T15:34:21;38.20;;;19.90;;
73678;SDS011;61978;52.742;16.962;2023-03-08T15:36:48;19.00;;;8.90;;
73678;SDS011;61978;52.742;16.962;2023-03-08T15:39:14;14.10;;;8.20;;
73678;SDS011;61978;52.742;16.962;2023-03-08T15:41:41;14.20;;;8.90;;
73678;SDS011;61978;52.742;16.962;2023-03-08T15:44:08;30.00;;;15.30;;